Home > Products > Valid Products > MTR

000
SAUS43 KDTX 292052
MTRP58
METAR KP58 292051Z AUTO 14007KT 19/17 A3008 RMK AO1 SLP182 T01940172
58016





000
SAUS43 KDTX 291953
MTRP58
METAR KP58 291951Z AUTO 13007KT 19/17 A3010 RMK AO1 SLP188 T01890172





000
SAUS43 KDTX 291853
MTRP58
METAR KP58 291851Z AUTO 13004KT 19/16 A3012 RMK AO1 SLP194 T01890161





000
SAUS43 KDTX 291754
MTRP58
METAR KP58 291751Z AUTO 12006KT 19/16 A3013 RMK AO1 SLP198 T01890156
10189 20172 50001





000
SAUS43 KDTX 291653
MTRP58
METAR KP58 291651Z AUTO 09006KT 19/16 A3013 RMK AO1 SLP199 T01890156





000
SAUS43 KDTX 291554
MTRP58
METAR KP58 291551Z AUTO 09003KT 18/16 A3014 RMK AO1 SLP202 T01830156





000
SAUS43 KDTX 291454
MTRP58
METAR KP58 291451Z AUTO 15003KT 18/16 A3013 RMK AO1 SLP198 T01830161
58002





000
SAUS43 KDTX 291454
MTRP58
METAR KP58 291451Z AUTO 15003KT 18/16 A3013 RMK AO1 SLP198 T01830161
58002





000
SAUS43 KDTX 291354
MTRP58
METAR KP58 291351Z AUTO 00000KT 18/15 A3012 RMK AO1 SLP196 T01830150





000
SAUS43 KDTX 291354
MTRP58
METAR KP58 291351Z AUTO 00000KT 18/15 A3012 RMK AO1 SLP196 T01830150





000
SAUS43 KDTX 291253
MTRP58
METAR KP58 291251Z AUTO 24004KT 17/15 A3014 RMK AO1 SLP204 T01720150





000
SAUS43 KDTX 291253
MTRP58
METAR KP58 291251Z AUTO 24004KT 17/15 A3014 RMK AO1 SLP204 T01720150





000
SAUS43 KDTX 291153
MTRP58
METAR KP58 291151Z AUTO 27004KT 17/15 A3013 RMK AO1 SLP199 T01720150
10183 20172 51010





000
SAUS43 KDTX 291153
MTRP58
METAR KP58 291151Z AUTO 27004KT 17/15 A3013 RMK AO1 SLP199 T01720150
10183 20172 51010





000
SAUS43 KDTX 291053
MTRP58
METAR KP58 291051Z AUTO VRB05KT 18/16 A3012 RMK AO1 SLP195 T01780156





000
SAUS43 KDTX 290952
MTRP58
METAR KP58 290951Z AUTO 25006KT 18/16 A3012 RMK AO1 SLP193 T01780156





000
SAUS43 KDTX 290853
MTRP58
METAR KP58 290851Z AUTO 22005KT 17/16 A3010 RMK AO1 SLP189 T01720156
55003





000
SAUS43 KDTX 290853
MTRP58
METAR KP58 290851Z AUTO 22005KT 17/16 A3010 RMK AO1 SLP189 T01720156
55003





000
SAUS43 KDTX 290752
MTRP58
METAR KP58 290751Z AUTO VRB05KT 17/15 A3010 RMK AO1 SLP188 T01720150





000
SAUS43 KDTX 290653
MTRP58
METAR KP58 290651Z AUTO 21005KT 17/15 A3011 RMK AO1 SLP189 T01720150





000
SAUS43 KDTX 290554
MTRP58
METAR KP58 290551Z AUTO VRB04KT 17/14 A3011 RMK AO1 SLP191 T01720144
10194 20172 58003





000
SAUS43 KDTX 290554
MTRP58
METAR KP58 290551Z AUTO VRB04KT 17/14 A3011 RMK AO1 SLP191 T01720144
10194 20172 58003





000
SAUS43 KDTX 290454
MTRP58
METAR KP58 290451Z AUTO VRB04KT 18/14 A3012 RMK AO1 SLP193 T01780144
402220128





000
SAUS43 KDTX 290353
MTRP58
METAR KP58 290351Z AUTO 17004KT 18/14 A3012 RMK AO1 SLP194 T01780144





000
SAUS43 KDTX 290353
MTRP58
METAR KP58 290351Z AUTO 17004KT 18/14 A3012 RMK AO1 SLP194 T01780144





000
SAUS43 KDTX 290254
MTRP58
METAR KP58 290251Z AUTO 18004KT 17/14 A3012 RMK AO1 SLP195 T01720144
53003





000
SAUS43 KDTX 290254
MTRP58
METAR KP58 290251Z AUTO 18004KT 17/14 A3012 RMK AO1 SLP195 T01720144
53003





000
SAUS43 KDTX 290152
MTRP58
METAR KP58 290151Z AUTO 17004KT 17/14 A3012 RMK AO1 SLP196 T01720144





000
SAUS43 KDTX 290152
MTRP58
METAR KP58 290151Z AUTO 17004KT 17/14 A3012 RMK AO1 SLP196 T01720144





000
SAUS43 KDTX 290054
MTRP58
METAR KP58 290051Z AUTO 17005KT 18/15 A3011 RMK AO1 SLP193 T01830150





000
SAUS43 KDTX 290054
MTRP58
METAR KP58 290051Z AUTO 17005KT 18/15 A3011 RMK AO1 SLP193 T01830150





000
SAUS43 KDTX 282352
MTRP58
METAR KP58 282351Z AUTO 16005KT 19/15 A3011 RMK AO1 SLP193 T01940150
10222 20194 57007





000
SAUS43 KDTX 282352
MTRP58
METAR KP58 282351Z AUTO 16005KT 19/15 A3011 RMK AO1 SLP193 T01940150
10222 20194 57007





000
SAUS43 KDTX 282254
MTRP58
METAR KP58 282251Z AUTO 00000KT 21/16 A3011 RMK AO1 SLP194 T02060161





000
SAUS43 KDTX 282152
MTRP58
METAR KP58 282151Z AUTO 00000KT 21/16 A3013 RMK AO1 SLP199 T02060161





000
SAUS43 KDTX 282052
MTRP58
METAR KP58 282051Z AUTO 31007KT 20/16 A3013 RMK AO1 SLP200 T02000161
56009





000
SAUS43 KDTX 282052
MTRP58
METAR KP58 282051Z AUTO 31007KT 20/16 A3013 RMK AO1 SLP200 T02000161
56009





000
SAUS43 KDTX 281953
MTRP58
METAR KP58 281951Z AUTO 30008KT 20/16 A3014 RMK AO1 SLP203 T02000161





000
SAUS43 KDTX 281953
MTRP58
METAR KP58 281951Z AUTO 30008KT 20/16 A3014 RMK AO1 SLP203 T02000161





000
SAUS43 KDTX 281853
MTRP58
METAR KP58 281851Z AUTO 12003KT 22/13 A3014 RMK AO1 SLP205 T02170133





000
SAUS43 KDTX 281853
MTRP58
METAR KP58 281851Z AUTO 12003KT 22/13 A3014 RMK AO1 SLP205 T02170133





000
SAUS43 KDTX 281754
MTRP58
METAR KP58 281751Z AUTO 06005KT 21/14 A3016 RMK AO1 SLP209 T02110144
10222 20144 58008





000
SAUS43 KDTX 281654
MTRP58
METAR KP58 281651Z AUTO VRB03KT 21/14 A3019 RMK AO1 SLP219 T02110139





000
SAUS43 KDTX 281553
MTRP58
METAR KP58 281551Z AUTO VRB04KT 21/14 A3019 RMK AO1 SLP219 T02060139





000
SAUS43 KDTX 281453
MTRP58
METAR KP58 281451Z AUTO VRB04KT 20/14 A3018 RMK AO1 SLP218 T02000139





000
SAUS43 KDTX 281354
MTRP58
METAR KP58 281351Z AUTO 23005KT 18/13 A3018 RMK AO1 SLP218 T01780133





000
SAUS43 KDTX 281254
MTRP58
METAR KP58 281251Z AUTO 23008KT 15/12 A3018 RMK AO1 SLP218 T01500122





000
SAUS43 KDTX 281254
MTRP58
METAR KP58 281251Z AUTO 23008KT 15/12 A3018 RMK AO1 SLP218 T01500122





000
SAUS43 KDTX 281152
MTRP58
METAR KP58 281151Z AUTO 23007KT 14/12 A3018 RMK AO1 SLP217 T01440117
10144 20128 51013





000
SAUS43 KDTX 281152
MTRP58
METAR KP58 281151Z AUTO 23007KT 14/12 A3018 RMK AO1 SLP217 T01440117
10144 20128 51013





000
SAUS43 KDTX 281053
MTRP58
METAR KP58 281051Z AUTO 22006KT 14/11 A3017 RMK AO1 SLP214 T01390111





000
SAUS43 KDTX 280952
MTRP58
METAR KP58 280951Z AUTO 22007KT 13/11 A3017 RMK AO1 SLP213 T01330111





000
SAUS43 KDTX 280852
MTRP58
METAR KP58 280851Z AUTO 22006KT 13/11 A3014 RMK AO1 SLP204 T01280106
57002





000
SAUS43 KDTX 280852
MTRP58
METAR KP58 280851Z AUTO 22006KT 13/11 A3014 RMK AO1 SLP204 T01280106
57002





000
SAUS43 KDTX 280753
MTRP58
METAR KP58 280751Z AUTO 22005KT 13/11 A3014 RMK AO1 SLP205 T01280111





000
SAUS43 KDTX 280652
MTRP58
METAR KP58 280651Z AUTO 22005KT 13/12 A3014 RMK AO1 SLP206 T01280117





000
SAUS43 KDTX 280652
MTRP58
METAR KP58 280651Z AUTO 22005KT 13/12 A3014 RMK AO1 SLP206 T01280117





000
SAUS43 KDTX 280553
MTRP58
METAR KP58 280551Z AUTO 21005KT 13/12 A3015 RMK AO1 SLP206 T01330117
10161 20128 56006





000
SAUS43 KDTX 280454
MTRP58
METAR KP58 280451Z AUTO VRB03KT 13/12 A3015 RMK AO1 SLP208 T01330117
401830128





000
SAUS43 KDTX 280354
MTRP58
METAR KP58 280351Z AUTO 19003KT 13/12 A3016 RMK AO1 SLP211 T01280117





000
SAUS43 KDTX 280254
MTRP58
METAR KP58 280251Z AUTO 17004KT 13/12 A3016 RMK AO1 SLP214 T01330117
50005





000
SAUS43 KDTX 280153
MTRP58
METAR KP58 280151Z AUTO 00000KT 13/12 A3017 RMK AO1 SLP216 T01330117





000
SAUS43 KDTX 280153
MTRP58
METAR KP58 280151Z AUTO 00000KT 13/12 A3017 RMK AO1 SLP216 T01330117





000
SAUS43 KDTX 280054
MTRP58
METAR KP58 280051Z AUTO 16003KT 14/12 A3015 RMK AO1 SLP210 T01390117





000
SAUS43 KDTX 280054
MTRP58
METAR KP58 280051Z AUTO 16003KT 14/12 A3015 RMK AO1 SLP210 T01390117





000
SAUS43 KDTX 272354
MTRP58
METAR KP58 272351Z AUTO 13005KT 16/12 A3015 RMK AO1 SLP207 T01610117
10183 20161 58005





000
SAUS43 KDTX 272354
MTRP58
METAR KP58 272351Z AUTO 13005KT 16/12 A3015 RMK AO1 SLP207 T01610117
10183 20161 58005





000
SAUS43 KDTX 272254
MTRP58
METAR KP58 272251Z AUTO 07003KT 17/11 A3017 RMK AO1 SLP213 T01720111





000
SAUS43 KDTX 272154
MTRP58
METAR KP58 272151Z AUTO 01003KT 18/12 A3017 RMK AO1 SLP213 T01780117





000
SAUS43 KDTX 272053
MTRP58
METAR KP58 272051Z AUTO 00000KT 18/11 A3017 RMK AO1 SLP212 T01830111
55006





000
SAUS43 KDTX 271954
MTRP58
METAR KP58 271951Z AUTO 01003KT 18/12 A3016 RMK AO1 SLP212 T01780117





000
SAUS43 KDTX 271852
MTRP58
METAR KP58 271851Z AUTO 04005KT 17/11 A3017 RMK AO1 SLP214 T01720111





000
SAUS43 KDTX 271752
MTRP58
METAR KP58 271751Z AUTO 32004KT 17/12 A3018 RMK AO1 SLP219 T01720117
10172 20144 58003





000
SAUS43 KDTX 271752
MTRP58
METAR KP58 271751Z AUTO 32004KT 17/12 A3018 RMK AO1 SLP219 T01720117
10172 20144 58003





000
SAUS43 KDTX 271652
MTRP58
METAR KP58 271651Z AUTO 32006KT 16/11 A3020 RMK AO1 SLP223 T01560111





000
SAUS43 KDTX 271553
MTRP58
METAR KP58 271551Z AUTO 30006KT 16/11 A3020 RMK AO1 SLP224 T01610111





000
SAUS43 KDTX 271553
MTRP58
METAR KP58 271551Z AUTO 30006KT 16/11 A3020 RMK AO1 SLP224 T01610111





000
SAUS43 KDTX 271452
MTRP58
METAR KP58 271451Z AUTO 31007KT 16/12 A3019 RMK AO1 SLP222 T01610117
51011





000
SAUS43 KDTX 271452
MTRP58
METAR KP58 271451Z AUTO 31007KT 16/12 A3019 RMK AO1 SLP222 T01610117
51011





000
SAUS43 KDTX 271354
MTRP58
METAR KP58 271351Z AUTO 31008KT 16/12 A3018 RMK AO1 SLP219 T01560117





000
SAUS43 KDTX 271253
MTRP58
METAR KP58 271251Z AUTO 31008KT 15/11 A3017 RMK AO1 SLP216 T01500111





000
SAUS43 KDTX 271253
MTRP58
METAR KP58 271251Z AUTO 31008KT 15/11 A3017 RMK AO1 SLP216 T01500111





000
SAUS43 KDTX 271153
MTRP58
METAR KP58 271151Z AUTO 30007KT 14/11 A3016 RMK AO1 SLP210 7////
T01440111 10150 20144 53009





000
SAUS43 KDTX 271153
MTRP58
METAR KP58 271151Z AUTO 30007KT 14/11 A3016 RMK AO1 SLP210 7////
T01440111 10150 20144 53009





000
SAUS43 KDTX 271054
MTRP58
METAR KP58 271051Z AUTO 29007KT 14/11 A3015 RMK AO1 SLP207 T01440106





000
SAUS43 KDTX 270954
MTRP58
METAR KP58 270951Z AUTO 00000KT 14/11 A3014 RMK AO1 SLP203 T01440106





000
SAUS43 KDTX 270954
MTRP58
METAR KP58 270951Z AUTO 00000KT 14/11 A3014 RMK AO1 SLP203 T01440106





000
SAUS43 KDTX 270852
MTRP58
METAR KP58 270851Z AUTO 32006KT 14/11 A3013 RMK AO1 SLP201 T01440111
53003





000
SAUS43 KDTX 270852
MTRP58
METAR KP58 270851Z AUTO 32006KT 14/11 A3013 RMK AO1 SLP201 T01440111
53003





000
SAUS43 KDTX 270753
MTRP58
METAR KP58 270751Z AUTO 30005KT 14/12 A3012 RMK AO1 SLP198 T01440117





000
SAUS43 KDTX 270653
MTRP58
METAR KP58 270651Z AUTO 30008KT 14/12 A3012 RMK AO1 SLP196 T01440122





000
SAUS43 KDTX 270653
MTRP58
METAR KP58 270651Z AUTO 30008KT 14/12 A3012 RMK AO1 SLP196 T01440122





000
SAUS43 KDTX 270554
MTRP58
METAR KP58 270551Z AUTO 32008KT 15/13 A3012 RMK AO1 SLP198 6////
T01500128 10172 20150





000
SAUS43 KDTX 270554
MTRP58
METAR KP58 270551Z AUTO 32008KT 15/13 A3012 RMK AO1 SLP198 6////
T01500128 10172 20150





000
SAUS43 KDTX 270455
MTRP58
METAR KP58 270452Z AUTO 31009KT 16/12 A3012 RMK AO1 SLP196 T01560117
401720139 PNO





000
SAUS43 KDTX 270455
MTRP58
METAR KP58 270452Z AUTO 31009KT 16/12 A3012 RMK AO1 SLP196 T01560117
401720139 PNO





000
SAUS43 KDTX 270353
MTRP58
METAR KP58 270351Z AUTO 32008KT 16/12 A3011 RMK AO1 SLP195 T01560117





000
SAUS43 KDTX 270353
MTRP58
METAR KP58 270351Z AUTO 32008KT 16/12 A3011 RMK AO1 SLP195 T01560117





000
SAUS43 KDTX 270254
MTRP58
METAR KP58 270251Z AUTO 32009G15KT 16/12 A3011 RMK AO1 SLP195
T01560117 51010





000
SAUS43 KDTX 270153
MTRP58
METAR KP58 270151Z AUTO 32007KT 16/12 A3011 RMK AO1 SLP194 T01560117





000
SAUS43 KDTX 270052
MTRP58
METAR KP58 270051Z AUTO 31010G15KT 16/12 A3009 RMK AO1 SLP187
T01610122





000
SAUS43 KDTX 270052
MTRP58
METAR KP58 270051Z AUTO 31010G15KT 16/12 A3009 RMK AO1 SLP187
T01610122





000
SAUS43 KDTX 262353
MTRP58
METAR KP58 262351Z AUTO 31009KT 16/12 A3008 RMK AO1 SLP185 T01610117
10172 20161 53006





000
SAUS43 KDTX 262353
MTRP58
METAR KP58 262351Z AUTO 31009KT 16/12 A3008 RMK AO1 SLP185 T01610117
10172 20161 53006





000
SAUS43 KDTX 262253
MTRP58
METAR KP58 262251Z AUTO 31008KT 17/12 A3007 RMK AO1 SLP182 T01670117





000
SAUS43 KDTX 262154
MTRP58
METAR KP58 262151Z AUTO 31008KT 17/12 A3006 RMK AO1 SLP178 T01670122





    US Dept of Commerce
    National Oceanic and Atmospheric Administration
    National Weather Service
    1325 East West Highway
    Silver Spring, MD 20910
    Page Author: NWS Internet Services Team
Disclaimer
Information Quality
Credits
Glossary
Privacy Policy
Freedom of Information Act (FOIA)
About Us
Career Opportunities